createdAt,value
2022-09-14T00:01:45.389Z,100.00
2022-09-14T00:04:17.494Z,100.00
2022-09-14T00:06:46.873Z,100.00
2022-09-14T00:09:17.278Z,100.00
2022-09-14T00:11:46.396Z,100.00
2022-09-14T00:14:15.034Z,100.00
2022-09-14T00:16:45.899Z,100.00
2022-09-14T00:19:20.033Z,100.00
2022-09-14T00:21:52.870Z,100.00
2022-09-14T00:24:22.417Z,100.00
2022-09-14T00:26:51.301Z,100.00
2022-09-14T00:29:19.897Z,100.00
2022-09-14T00:31:49.894Z,100.00
2022-09-14T00:34:19.178Z,100.00
2022-09-14T00:36:50.305Z,100.00
2022-09-14T00:39:20.282Z,100.00
2022-09-14T00:41:50.545Z,100.00
2022-09-14T00:44:56.171Z,100.00
2022-09-14T00:47:26.302Z,100.00
2022-09-14T00:49:55.358Z,100.00
2022-09-14T00:52:26.951Z,100.00
2022-09-14T00:54:57.339Z,100.00
2022-09-14T00:57:27.144Z,100.00
2022-09-14T00:59:58.492Z,100.00
2022-09-14T01:02:29.767Z,100.00
2022-09-14T01:04:58.830Z,100.00
2022-09-14T01:07:50.803Z,100.00
2022-09-14T01:10:29.510Z,100.00
2022-09-14T01:13:10.002Z,100.00
2022-09-14T01:15:44.455Z,100.00
2022-09-14T01:18:17.868Z,100.00
2022-09-14T01:20:52.311Z,100.00
2022-09-14T01:23:29.813Z,100.00
2022-09-14T01:26:39.816Z,100.00
2022-09-14T01:29:14.662Z,100.00
2022-09-14T01:31:50.964Z,100.00
2022-09-14T01:34:28.271Z,100.00
2022-09-14T01:37:02.014Z,100.00
2022-09-14T01:39:33.844Z,100.00
2022-09-14T01:42:03.901Z,100.00
2022-09-14T01:44:38.569Z,100.00
2022-09-14T01:47:14.495Z,100.00
2022-09-14T01:49:49.036Z,100.00
2022-09-14T01:52:23.596Z,100.00
2022-09-14T01:54:56.849Z,100.00
2022-09-14T01:57:32.691Z,100.00
2022-09-14T02:00:06.662Z,100.00
2022-09-14T02:02:39.537Z,100.00
2022-09-14T02:05:11.774Z,100.00
2022-09-14T02:07:40.700Z,100.00
2022-09-14T02:10:12.854Z,100.00
2022-09-14T02:12:42.004Z,100.00
2022-09-14T02:15:14.918Z,100.00
2022-09-14T02:17:44.353Z,100.00
2022-09-14T02:20:16.997Z,100.00
2022-09-14T02:22:45.768Z,100.00
2022-09-14T02:25:14.298Z,100.00
2022-09-14T02:27:42.797Z,100.00
2022-09-14T02:30:16.638Z,100.00
2022-09-14T02:33:02.313Z,100.00
2022-09-14T02:35:37.491Z,100.00
2022-09-14T02:38:12.154Z,100.00
2022-09-14T02:40:44.991Z,100.00
2022-09-14T02:43:24.421Z,100.00
2022-09-14T02:46:01.992Z,100.00
2022-09-14T02:48:38.826Z,100.00
2022-09-14T02:51:13.895Z,100.00
2022-09-14T02:53:48.992Z,100.00
2022-09-14T02:56:21.336Z,100.00
2022-09-14T02:58:50.000Z,100.00
2022-09-14T03:01:22.745Z,100.00
2022-09-14T03:03:51.319Z,100.00
2022-09-14T03:06:19.703Z,100.00
2022-09-14T03:08:48.529Z,100.00
2022-09-14T03:11:17.276Z,100.00
2022-09-14T03:13:46.280Z,100.00
2022-09-14T03:16:18.598Z,100.00
2022-09-14T03:18:48.306Z,100.00
2022-09-14T03:21:18.629Z,100.00
2022-09-14T03:23:49.495Z,100.00
2022-09-14T03:26:19.268Z,100.00
2022-09-14T03:28:51.613Z,100.00
2022-09-14T03:31:20.855Z,100.00
2022-09-14T03:33:56.685Z,100.00
2022-09-14T03:36:26.562Z,100.00
2022-09-14T03:38:58.871Z,100.00
2022-09-14T03:41:27.284Z,100.00
2022-09-14T03:43:55.810Z,100.00
2022-09-14T03:46:27.060Z,100.00
2022-09-14T03:48:57.362Z,100.00
2022-09-14T03:51:25.788Z,100.00
2022-09-14T03:53:54.711Z,100.00
2022-09-14T03:56:24.526Z,100.00
2022-09-14T03:58:53.292Z,100.00
2022-09-14T04:01:23.676Z,100.00
2022-09-14T04:03:52.884Z,100.00
2022-09-14T04:06:22.874Z,100.00
2022-09-14T04:08:51.547Z,100.00
2022-09-14T04:11:21.501Z,100.00
2022-09-14T04:13:50.881Z,100.00
2022-09-14T04:16:21.311Z,100.00
2022-09-14T04:18:50.443Z,100.00
2022-09-14T04:21:23.616Z,100.00
2022-09-14T04:26:43.973Z,100.00
2022-09-14T04:29:14.813Z,100.00
2022-09-14T04:31:43.996Z,100.00
2022-09-14T04:34:14.765Z,100.00
2022-09-14T04:36:45.561Z,100.00
2022-09-14T04:39:15.516Z,100.00
2022-09-14T04:41:43.990Z,100.00
2022-09-14T04:44:13.854Z,100.00
2022-09-14T04:46:46.654Z,100.00
2022-09-14T04:49:16.762Z,100.00
2022-09-14T04:51:50.071Z,100.00
2022-09-14T04:54:19.737Z,100.00
2022-09-14T04:56:48.847Z,100.00
2022-09-14T04:59:17.374Z,100.00
2022-09-14T05:01:48.628Z,100.00
2022-09-14T05:04:18.112Z,100.00
2022-09-14T05:06:46.873Z,100.00
2022-09-14T05:09:19.257Z,100.00
2022-09-14T05:11:49.673Z,100.00
2022-09-14T05:14:18.246Z,100.00
2022-09-14T05:16:48.492Z,100.00
2022-09-14T05:19:20.050Z,100.00
2022-09-14T05:21:48.715Z,100.00
2022-09-14T05:24:19.938Z,100.00
2022-09-14T05:26:48.559Z,100.00
2022-09-14T05:29:19.712Z,100.00
2022-09-14T05:31:48.555Z,100.00
2022-09-14T05:34:17.466Z,100.00
2022-09-14T05:36:45.960Z,100.00
2022-09-14T05:39:16.939Z,100.00
2022-09-14T05:41:51.656Z,100.00
2022-09-14T05:44:20.157Z,100.00
2022-09-14T05:46:48.924Z,100.00
2022-09-14T05:49:17.504Z,100.00
2022-09-14T05:51:46.176Z,100.00
2022-09-14T05:54:14.768Z,100.00
2022-09-14T05:56:43.984Z,100.00
2022-09-14T05:59:14.472Z,100.00
2022-09-14T06:01:43.103Z,100.00
2022-09-14T06:04:13.483Z,100.00
2022-09-14T06:06:46.932Z,100.00
2022-09-14T06:09:24.735Z,100.00
2022-09-14T06:11:53.508Z,100.00
2022-09-14T06:14:23.199Z,100.00
2022-09-14T06:16:51.666Z,100.00
2022-09-14T06:19:20.816Z,100.00
2022-09-14T06:21:49.618Z,100.00
2022-09-14T06:24:18.702Z,100.00
2022-09-14T06:26:47.303Z,100.00
2022-09-14T06:29:16.097Z,100.00
2022-09-14T06:31:46.135Z,100.00
2022-09-14T06:34:15.868Z,100.00
2022-09-14T06:36:44.938Z,100.00
2022-09-14T06:39:13.681Z,100.00
2022-09-14T06:41:42.639Z,100.00
2022-09-14T06:44:20.812Z,100.00
2022-09-14T06:46:50.857Z,100.00
2022-09-14T06:49:23.279Z,100.00
2022-09-14T06:51:54.739Z,100.00
2022-09-14T06:54:23.908Z,100.00
2022-09-14T06:56:55.816Z,100.00
2022-09-14T06:59:24.620Z,100.00
2022-09-14T07:01:55.190Z,100.00
2022-09-14T07:04:25.176Z,100.00
2022-09-14T07:06:54.604Z,100.00
2022-09-14T07:09:23.570Z,100.00
2022-09-14T07:11:52.097Z,100.00
2022-09-14T07:14:21.308Z,100.00
2022-09-14T07:16:50.147Z,100.00
2022-09-14T07:19:20.155Z,100.00
2022-09-14T07:21:50.297Z,100.00
2022-09-14T07:24:19.166Z,100.00
2022-09-14T07:26:48.666Z,100.00
2022-09-14T07:29:19.422Z,100.00
2022-09-14T07:31:50.023Z,100.00
2022-09-14T07:34:20.776Z,100.00
2022-09-14T07:36:49.735Z,100.00
2022-09-14T07:39:20.387Z,100.00
2022-09-14T07:41:52.333Z,100.00
2022-09-14T07:44:21.467Z,100.00
2022-09-14T07:46:53.808Z,100.00
2022-09-14T07:49:31.951Z,100.00
2022-09-14T07:52:00.963Z,100.00
2022-09-14T07:54:29.946Z,100.00
2022-09-14T07:56:58.562Z,100.00
2022-09-14T07:59:36.424Z,100.00
2022-09-14T08:02:08.050Z,100.00
2022-09-14T08:04:39.863Z,100.00
2022-09-14T08:07:09.387Z,100.00
2022-09-14T08:09:39.248Z,100.00
2022-09-14T08:12:07.896Z,100.00
2022-09-14T08:14:37.146Z,100.00
2022-09-14T08:17:05.821Z,100.00
2022-09-14T08:19:34.445Z,100.00
2022-09-14T08:22:04.461Z,100.00
2022-09-14T08:24:33.637Z,100.00
2022-09-14T08:27:02.227Z,100.00
2022-09-14T08:29:30.757Z,100.00
2022-09-14T08:32:03.835Z,100.00
2022-09-14T08:34:33.204Z,100.00
2022-09-14T08:37:03.517Z,100.00
2022-09-14T08:39:32.627Z,100.00
2022-09-14T08:42:02.188Z,100.00
2022-09-14T08:44:32.715Z,100.00
2022-09-14T08:47:03.918Z,100.00
2022-09-14T08:49:51.425Z,100.00
2022-09-14T08:52:29.461Z,100.00
2022-09-14T08:55:01.583Z,100.00
2022-09-14T08:57:36.355Z,100.00
2022-09-14T09:00:10.594Z,100.00
2022-09-14T09:03:05.547Z,100.00
2022-09-14T09:05:40.802Z,100.00
2022-09-14T09:08:19.043Z,100.00
2022-09-14T09:10:49.232Z,100.00
2022-09-14T09:13:22.057Z,100.00
2022-09-14T09:15:53.797Z,100.00
2022-09-14T09:18:28.011Z,100.00
2022-09-14T09:21:01.879Z,100.00
2022-09-14T09:23:33.950Z,100.00
2022-09-14T09:26:06.110Z,100.00
2022-09-14T09:28:35.470Z,100.00
2022-09-14T09:31:11.441Z,100.00
2022-09-14T09:34:15.808Z,100.00
2022-09-14T09:36:47.690Z,97.24
2022-09-14T09:39:18.654Z,95.68
2022-09-14T09:41:50.869Z,96.19
2022-09-14T09:44:20.419Z,95.76
2022-09-14T09:46:51.832Z,93.72
2022-09-14T09:49:24.595Z,91.68
2022-09-14T09:51:56.857Z,91.91
2022-09-14T09:54:34.626Z,88.31
2022-09-14T09:57:06.791Z,90.70
2022-09-14T09:59:39.669Z,91.59
2022-09-14T10:02:27.869Z,89.19
2022-09-14T10:05:02.647Z,91.57
2022-09-14T10:07:33.537Z,88.72
2022-09-14T10:10:06.773Z,84.54
2022-09-14T10:12:38.974Z,88.17
2022-09-14T10:15:18.276Z,83.81
2022-09-14T10:18:02.157Z,88.29
2022-09-14T10:20:32.425Z,91.98
2022-09-14T10:23:24.132Z,88.47
2022-09-14T10:26:15.983Z,92.09
2022-09-14T10:28:47.910Z,91.22
2022-09-14T10:31:24.325Z,90.16
2022-09-14T10:33:56.321Z,91.30
2022-09-14T10:36:29.831Z,87.39
2022-09-14T10:39:08.502Z,84.23
2022-09-14T10:41:43.682Z,81.45
2022-09-14T10:44:32.468Z,79.39
2022-09-14T10:47:21.738Z,81.26
2022-09-14T10:50:04.033Z,80.38
2022-09-14T10:52:46.117Z,76.79
2022-09-14T10:55:32.251Z,84.02
2022-09-14T10:58:18.066Z,86.24
2022-09-14T11:00:57.641Z,85.94
2022-09-14T11:03:44.002Z,82.84
2022-09-14T11:06:29.815Z,78.98
2022-09-14T11:09:03.445Z,77.08
2022-09-14T11:11:46.792Z,73.01
2022-09-14T11:14:31.456Z,72.19
2022-09-14T11:17:20.604Z,70.32
2022-09-14T11:20:03.119Z,73.04
2022-09-14T11:22:42.330Z,71.43
2022-09-14T11:25:15.864Z,74.29
2022-09-14T11:27:51.322Z,70.71
2022-09-14T11:30:22.498Z,74.09
2022-09-14T11:32:56.552Z,71.42
2022-09-14T11:35:30.475Z,72.59
2022-09-14T11:38:02.575Z,73.02
2022-09-14T11:40:36.475Z,74.11
2022-09-14T11:43:14.753Z,74.83
2022-09-14T11:45:48.754Z,73.79
2022-09-14T11:48:42.417Z,74.22
2022-09-14T11:51:20.055Z,76.37
2022-09-14T11:53:49.059Z,76.42
2022-09-14T11:56:29.521Z,74.33
2022-09-14T11:59:00.233Z,73.02
2022-09-14T12:01:32.890Z,71.48
2022-09-14T12:04:21.038Z,65.82
2022-09-14T12:06:57.551Z,70.14
2022-09-14T12:09:50.499Z,62.88
2022-09-14T12:12:39.897Z,71.90
2022-09-14T12:15:23.235Z,73.28
2022-09-14T12:17:52.300Z,76.35
2022-09-14T12:20:42.081Z,72.56
2022-09-14T12:23:34.087Z,72.04
2022-09-14T12:26:06.456Z,70.25
2022-09-14T12:28:48.486Z,75.04
2022-09-14T12:31:40.139Z,75.45
2022-09-14T12:34:27.381Z,76.32
2022-09-14T12:37:33.717Z,74.46
2022-09-14T12:40:37.550Z,76.74
2022-09-14T12:43:48.716Z,73.61
2022-09-14T12:46:41.107Z,74.41
2022-09-14T12:49:36.621Z,69.63
2022-09-14T12:52:27.624Z,72.37
2022-09-14T12:55:16.394Z,71.34
2022-09-14T12:57:52.153Z,74.70
2022-09-14T13:00:22.775Z,74.31
2022-09-14T13:03:19.580Z,71.59
2022-09-14T13:05:48.093Z,73.34
2022-09-14T13:08:23.769Z,71.53
2022-09-14T13:10:54.669Z,71.65
2022-09-14T13:13:29.488Z,72.76
2022-09-14T13:16:01.772Z,75.19
2022-09-14T13:18:34.078Z,74.77
2022-09-14T13:21:12.318Z,76.44
2022-09-14T13:23:44.001Z,78.17
2022-09-14T13:26:23.322Z,77.24
2022-09-14T13:28:54.001Z,78.09
2022-09-14T13:31:30.275Z,77.98
2022-09-14T13:34:01.259Z,79.40
2022-09-14T13:36:32.194Z,79.72
2022-09-14T13:39:03.387Z,80.46
2022-09-14T13:41:34.400Z,80.06
2022-09-14T13:44:03.757Z,79.79
2022-09-14T13:46:32.539Z,80.54
2022-09-14T13:49:01.563Z,81.00
2022-09-14T13:51:30.826Z,80.66
2022-09-14T13:54:17.377Z,80.99
2022-09-14T13:56:48.253Z,80.87
2022-09-14T13:59:22.080Z,80.53
2022-09-14T14:02:01.328Z,81.19
2022-09-14T14:04:35.519Z,81.29
2022-09-14T14:07:16.921Z,80.64
2022-09-14T14:09:50.944Z,81.29
2022-09-14T14:12:26.880Z,81.14
2022-09-14T14:15:01.397Z,81.28
2022-09-14T14:17:37.038Z,81.21
2022-09-14T14:20:34.849Z,80.25
2022-09-14T14:23:21.446Z,80.60
2022-09-14T14:25:54.706Z,82.03
2022-09-14T14:28:32.830Z,82.34
2022-09-14T14:31:08.690Z,82.30
2022-09-14T14:33:46.625Z,80.89
2022-09-14T14:36:16.796Z,81.19
2022-09-14T14:38:50.751Z,80.91
2022-09-14T14:41:22.789Z,80.85
2022-09-14T14:43:53.971Z,80.84
2022-09-14T14:46:26.035Z,81.41
2022-09-14T14:48:55.400Z,81.67
2022-09-14T14:51:25.668Z,81.73
2022-09-14T14:53:55.330Z,81.71
2022-09-14T14:56:24.736Z,81.07
2022-09-14T14:58:57.826Z,81.06
2022-09-14T15:01:31.323Z,81.40
2022-09-14T15:04:00.496Z,80.80
2022-09-14T15:06:30.476Z,81.72
2022-09-14T15:09:00.244Z,81.86
2022-09-14T15:11:29.144Z,82.96
2022-09-14T15:14:00.156Z,82.77
2022-09-14T15:16:29.134Z,83.95
2022-09-14T15:18:57.829Z,84.33
2022-09-14T15:21:27.505Z,84.69
2022-09-14T15:23:59.048Z,85.50
2022-09-14T15:26:28.120Z,83.64
2022-09-14T15:28:57.428Z,85.24
2022-09-14T15:31:28.717Z,85.88
2022-09-14T15:33:58.337Z,86.63
2022-09-14T15:36:37.799Z,87.13
2022-09-14T15:39:07.851Z,87.68
2022-09-14T15:41:36.701Z,88.16
2022-09-14T15:44:06.331Z,88.23
2022-09-14T15:46:36.865Z,88.79
2022-09-14T15:49:07.240Z,89.22
2022-09-14T15:51:36.125Z,89.40
2022-09-14T15:54:06.135Z,90.57
2022-09-14T15:56:36.364Z,91.12
2022-09-14T15:59:05.865Z,92.48
2022-09-14T16:01:37.889Z,93.23
2022-09-14T16:04:11.563Z,93.94
2022-09-14T16:06:41.669Z,95.31
2022-09-14T16:09:12.131Z,95.67
2022-09-14T16:11:41.687Z,96.66
2022-09-14T16:14:12.211Z,97.64
2022-09-14T16:16:43.605Z,98.25
2022-09-14T16:19:14.174Z,98.83
2022-09-14T16:21:44.069Z,100.00
2022-09-14T16:24:19.617Z,100.00
2022-09-14T16:26:48.789Z,100.00
2022-09-14T16:29:23.489Z,100.00
2022-09-14T16:31:54.302Z,100.00
2022-09-14T16:34:24.840Z,100.00
2022-09-14T16:36:53.830Z,100.00
2022-09-14T16:39:25.494Z,100.00
2022-09-14T16:41:55.948Z,100.00
2022-09-14T16:44:27.957Z,100.00
2022-09-14T16:47:01.913Z,100.00
2022-09-14T16:49:31.213Z,100.00
2022-09-14T16:52:00.892Z,100.00
2022-09-14T16:54:31.860Z,100.00
2022-09-14T16:57:01.631Z,100.00
2022-09-14T16:59:30.711Z,100.00
2022-09-14T17:02:02.503Z,100.00
2022-09-14T17:04:31.064Z,100.00
2022-09-14T17:07:00.795Z,100.00
2022-09-14T17:09:31.688Z,100.00
2022-09-14T17:12:00.765Z,100.00
2022-09-14T17:14:33.919Z,100.00
2022-09-14T17:17:04.360Z,100.00
2022-09-14T17:19:34.880Z,100.00
2022-09-14T17:22:04.032Z,100.00
2022-09-14T17:24:32.795Z,100.00
2022-09-14T17:27:01.254Z,100.00
2022-09-14T17:29:32.268Z,100.00
2022-09-14T17:32:00.939Z,100.00
2022-09-14T17:34:31.226Z,100.00
2022-09-14T17:37:00.803Z,100.00
2022-09-14T17:39:29.860Z,100.00
2022-09-14T17:41:58.988Z,100.00
2022-09-14T17:44:31.607Z,100.00
2022-09-14T17:47:00.138Z,100.00
2022-09-14T17:49:30.760Z,100.00
2022-09-14T17:51:59.132Z,100.00
2022-09-14T17:54:27.901Z,100.00
2022-09-14T17:56:56.894Z,100.00
2022-09-14T17:59:26.054Z,100.00
2022-09-14T18:01:55.093Z,100.00
2022-09-14T18:04:24.076Z,100.00
2022-09-14T18:06:54.000Z,100.00
2022-09-14T18:09:25.388Z,100.00
2022-09-14T18:11:57.329Z,100.00
2022-09-14T18:14:27.715Z,100.00
2022-09-14T18:17:00.805Z,100.00
2022-09-14T18:19:32.886Z,100.00
2022-09-14T18:22:06.381Z,100.00
2022-09-14T18:24:35.440Z,100.00
2022-09-14T18:27:07.749Z,100.00
2022-09-14T18:29:36.624Z,100.00
2022-09-14T18:32:05.571Z,100.00
2022-09-14T18:34:34.798Z,100.00
2022-09-14T18:37:04.837Z,100.00
2022-09-14T18:39:33.484Z,100.00
2022-09-14T18:42:02.512Z,100.00
2022-09-14T18:44:31.581Z,100.00
2022-09-14T18:47:00.560Z,100.00
2022-09-14T18:49:29.538Z,100.00
2022-09-14T18:51:58.203Z,100.00
2022-09-14T18:54:29.067Z,100.00
2022-09-14T18:56:58.058Z,100.00
2022-09-14T18:59:27.232Z,100.00
2022-09-14T19:01:56.081Z,100.00
2022-09-14T19:04:25.964Z,100.00
2022-09-14T19:06:56.047Z,100.00
2022-09-14T19:12:56.821Z,100.00
2022-09-14T19:15:30.826Z,100.00
2022-09-14T19:18:01.961Z,100.00
2022-09-14T19:20:43.303Z,100.00
2022-09-14T19:23:22.830Z,100.00
2022-09-14T19:25:51.835Z,100.00
2022-09-14T19:28:22.499Z,100.00
2022-09-14T19:30:51.562Z,100.00
2022-09-14T19:33:20.677Z,100.00
2022-09-14T19:35:50.070Z,100.00
2022-09-14T19:38:19.016Z,100.00
2022-09-14T19:40:54.021Z,100.00
2022-09-14T19:43:24.791Z,100.00
2022-09-14T19:45:53.968Z,100.00
2022-09-14T19:48:22.761Z,100.00
2022-09-14T19:50:53.528Z,100.00
2022-09-14T19:53:22.100Z,100.00
2022-09-14T19:55:51.081Z,100.00
2022-09-14T19:58:20.026Z,100.00
2022-09-14T20:00:55.755Z,100.00
2022-09-14T20:03:26.571Z,100.00
2022-09-14T20:06:01.072Z,100.00
2022-09-14T20:08:30.424Z,100.00
2022-09-14T20:11:05.745Z,100.00
2022-09-14T20:13:34.924Z,100.00
2022-09-14T20:16:12.768Z,100.00
2022-09-14T20:18:42.498Z,100.00
2022-09-14T20:21:11.919Z,100.00
2022-09-14T20:23:57.951Z,100.00
2022-09-14T20:26:31.459Z,100.00
2022-09-14T20:29:01.498Z,100.00
2022-09-14T20:31:32.578Z,100.00
2022-09-14T20:34:02.164Z,100.00
2022-09-14T20:36:30.777Z,100.00
2022-09-14T20:39:00.659Z,100.00
2022-09-14T20:41:32.445Z,100.00
2022-09-14T20:44:01.336Z,100.00
2022-09-14T20:46:35.120Z,100.00
2022-09-14T20:49:05.666Z,100.00
2022-09-14T20:51:35.672Z,100.00
2022-09-14T20:54:05.115Z,100.00
2022-09-14T20:56:35.610Z,100.00
2022-09-14T20:59:09.702Z,100.00
2022-09-14T21:01:41.395Z,100.00
2022-09-14T21:04:12.847Z,100.00
2022-09-14T21:06:44.833Z,100.00
2022-09-14T21:09:14.705Z,100.00
2022-09-14T21:11:45.932Z,100.00
2022-09-14T21:14:15.543Z,100.00
2022-09-14T21:16:47.580Z,100.00
2022-09-14T21:19:18.137Z,100.00
2022-09-14T21:21:46.776Z,100.00
2022-09-14T21:24:16.458Z,100.00
2022-09-14T21:26:45.763Z,100.00
2022-09-14T21:29:17.526Z,100.00
2022-09-14T21:31:48.910Z,100.00
2022-09-14T21:34:18.720Z,100.00
2022-09-14T21:36:49.417Z,100.00
2022-09-14T21:39:21.655Z,100.00
2022-09-14T21:41:55.739Z,100.00
2022-09-14T21:44:30.035Z,100.00
2022-09-14T21:47:00.727Z,100.00
2022-09-14T21:49:29.842Z,100.00
2022-09-14T21:51:58.787Z,100.00
2022-09-14T21:54:28.130Z,100.00
2022-09-14T21:56:57.413Z,100.00
2022-09-14T21:59:26.018Z,100.00
2022-09-14T22:01:54.913Z,100.00
2022-09-14T22:04:26.366Z,100.00
2022-09-14T22:06:57.473Z,100.00
2022-09-14T22:09:28.412Z,100.00
2022-09-14T22:11:59.599Z,100.00
2022-09-14T22:14:29.684Z,100.00
2022-09-14T22:16:58.220Z,100.00
2022-09-14T22:19:30.658Z,100.00
2022-09-14T22:22:00.324Z,100.00
2022-09-14T22:24:37.024Z,100.00
2022-09-14T22:27:08.259Z,100.00
2022-09-14T22:29:37.449Z,100.00
2022-09-14T22:32:11.484Z,100.00
2022-09-14T22:34:43.904Z,100.00
2022-09-14T22:37:15.165Z,100.00
2022-09-14T22:39:43.537Z,100.00
2022-09-14T22:42:12.695Z,100.00
2022-09-14T22:44:40.992Z,100.00
2022-09-14T22:47:09.749Z,100.00
2022-09-14T22:49:38.599Z,100.00
2022-09-14T22:52:08.532Z,100.00
2022-09-14T22:54:36.930Z,100.00
2022-09-14T22:57:05.496Z,100.00
2022-09-14T22:59:33.780Z,100.00
2022-09-14T23:02:02.662Z,100.00
2022-09-14T23:04:31.252Z,100.00
2022-09-14T23:07:01.253Z,100.00
2022-09-14T23:09:31.163Z,100.00
2022-09-14T23:11:59.485Z,100.00
2022-09-14T23:14:28.356Z,100.00
2022-09-14T23:16:57.040Z,100.00
2022-09-14T23:19:25.646Z,100.00
2022-09-14T23:21:53.890Z,100.00
2022-09-14T23:24:22.544Z,100.00
2022-09-14T23:26:52.755Z,100.00
2022-09-14T23:29:21.379Z,100.00
2022-09-14T23:31:49.874Z,100.00
2022-09-14T23:34:18.144Z,100.00
2022-09-14T23:36:46.495Z,100.00
2022-09-14T23:39:14.840Z,100.00
2022-09-14T23:41:43.390Z,100.00
2022-09-14T23:44:14.764Z,100.00
2022-09-14T23:46:43.608Z,100.00
2022-09-14T23:49:15.683Z,100.00
2022-09-14T23:51:47.547Z,100.00
2022-09-14T23:54:16.361Z,100.00
2022-09-14T23:56:45.131Z,100.00
2022-09-14T23:59:16.431Z,100.00
